Aérodrome :
LOGIN :

S'inscrire | Disclaimer

   EN    FR    IT 

 










Légende :    VFR   VFR Marginal   IFR   IFR Intensif   IFR Très Intensif
Visi : 
Plafond : 
>= 8 km
>= 3000ft
5 à 8 km
1000 à 3000 ft
1500m à 5 km
500 à 1000 ft
800 à 1500m
200 à 500 ft
< 800m
< 200 ft
Symboles :   Orages  Brouillard  Fortes neiges  Fortes précipitations  Vent > 20 kt
SIGMETs :   Divers  Orages  Givrage  Turbulence  Onde Orograph.  Cendres Volcan.






- Altitude de l'aérodrome : 140 ft
- Code IATA : NYO


ESKN - Skavsta

DERNIER METAR :
  • 281650Z 12012KT 9999 FEW016 BKN025 13/09 Q1025

METARs EXPIRÉS :
  • 281620Z 12011KT 9999 BKN016 13/10 Q1025
  • 281550Z 13011KT 9999 SCT015 BKN023 13/10 Q1025
  • 281520Z 13012KT 9999 BKN016 14/10 Q1025
  • 281450Z 12010KT 9999 BKN015 14/10 Q1024
  • 281420Z 12010KT 9999 BKN015 14/10 Q1024

TAF TAF ESKN
Valide du 28 à 12h jusqu'au 29 à 12h UTC


281130Z 2812/2912 12013KT 9999 BKN018
PROB40 2812/2813 BKN014



MET'MAP, la Météo Aéronautique d'un coup d'oeil ! - Copyright ORBIFLY Décembre 2007 - Disclaimer

ORBIFLY MET'MAP TEAM :

Programmation & Développement : Alexandra Zaïnal
Sur une idée originale de : Baudouin d'Aumeries
Assistance à la programmation : Marc-Olivier Méhu
Soutien technique & logistique : Manuel Goepfert

Contact : metmap@orbifly.com




SOURCES & CREDITS :

   NOAA